sensor_id;sensor_type;location;lat;lon;timestamp;P1;durP1;ratioP1;P2;durP2;ratioP2
20294;SDS011;10306;52.128;5.208;2023-08-20T00:01:41;4.43;;;3.23;;
20294;SDS011;10306;52.128;5.208;2023-08-20T00:04:07;4.10;;;3.30;;
20294;SDS011;10306;52.128;5.208;2023-08-20T00:06:34;3.43;;;2.67;;
20294;SDS011;10306;52.128;5.208;2023-08-20T00:09:00;4.70;;;3.13;;
20294;SDS011;10306;52.128;5.208;2023-08-20T00:11:26;5.13;;;3.20;;
20294;SDS011;10306;52.128;5.208;2023-08-20T00:13:52;4.03;;;3.43;;
20294;SDS011;10306;52.128;5.208;2023-08-20T00:16:18;4.53;;;3.13;;
20294;SDS011;10306;52.128;5.208;2023-08-20T00:18:44;5.83;;;3.23;;
20294;SDS011;10306;52.128;5.208;2023-08-20T00:21:10;4.63;;;3.13;;
20294;SDS011;10306;52.128;5.208;2023-08-20T00:23:36;7.97;;;3.20;;
20294;SDS011;10306;52.128;5.208;2023-08-20T00:26:03;6.17;;;2.83;;
20294;SDS011;10306;52.128;5.208;2023-08-20T00:28:29;4.13;;;3.00;;
20294;SDS011;10306;52.128;5.208;2023-08-20T00:30:55;3.23;;;2.93;;
20294;SDS011;10306;52.128;5.208;2023-08-20T00:33:21;3.30;;;3.00;;
20294;SDS011;10306;52.128;5.208;2023-08-20T00:35:47;5.27;;;3.03;;
20294;SDS011;10306;52.128;5.208;2023-08-20T00:38:13;3.73;;;3.33;;
20294;SDS011;10306;52.128;5.208;2023-08-20T00:40:39;6.87;;;3.17;;
20294;SDS011;10306;52.128;5.208;2023-08-20T00:43:05;5.50;;;3.23;;
20294;SDS011;10306;52.128;5.208;2023-08-20T00:45:31;4.23;;;2.90;;
20294;SDS011;10306;52.128;5.208;2023-08-20T00:47:57;6.27;;;3.10;;
20294;SDS011;10306;52.128;5.208;2023-08-20T00:50:23;4.73;;;3.20;;
20294;SDS011;10306;52.128;5.208;2023-08-20T00:52:49;7.20;;;3.10;;
20294;SDS011;10306;52.128;5.208;2023-08-20T00:55:16;2.93;;;2.57;;
20294;SDS011;10306;52.128;5.208;2023-08-20T00:57:42;5.03;;;3.17;;
20294;SDS011;10306;52.128;5.208;2023-08-20T01:00:08;5.57;;;3.30;;
20294;SDS011;10306;52.128;5.208;2023-08-20T01:02:38;3.60;;;2.90;;
20294;SDS011;10306;52.128;5.208;2023-08-20T01:05:09;3.60;;;2.87;;
20294;SDS011;10306;52.128;5.208;2023-08-20T01:12:46;5.83;;;3.27;;
20294;SDS011;10306;52.128;5.208;2023-08-20T01:15:13;6.50;;;3.33;;
20294;SDS011;10306;52.128;5.208;2023-08-20T01:17:39;4.53;;;3.50;;
20294;SDS011;10306;52.128;5.208;2023-08-20T01:20:07;4.80;;;2.70;;
20294;SDS011;10306;52.128;5.208;2023-08-20T01:30:16;6.97;;;3.60;;
20294;SDS011;10306;52.128;5.208;2023-08-20T01:32:43;6.63;;;3.60;;
20294;SDS011;10306;52.128;5.208;2023-08-20T01:35:13;5.30;;;3.27;;
20294;SDS011;10306;52.128;5.208;2023-08-20T01:37:39;4.40;;;3.37;;
20294;SDS011;10306;52.128;5.208;2023-08-20T01:40:08;3.23;;;2.93;;
20294;SDS011;10306;52.128;5.208;2023-08-20T01:42:35;4.60;;;3.17;;
20294;SDS011;10306;52.128;5.208;2023-08-20T01:45:02;5.90;;;3.23;;
20294;SDS011;10306;52.128;5.208;2023-08-20T01:47:28;5.20;;;3.17;;
20294;SDS011;10306;52.128;5.208;2023-08-20T01:49:54;5.20;;;3.30;;
20294;SDS011;10306;52.128;5.208;2023-08-20T01:52:20;4.50;;;3.33;;
20294;SDS011;10306;52.128;5.208;2023-08-20T01:54:46;3.40;;;3.10;;
20294;SDS011;10306;52.128;5.208;2023-08-20T01:57:12;4.73;;;3.30;;
20294;SDS011;10306;52.128;5.208;2023-08-20T01:59:38;4.70;;;3.33;;
20294;SDS011;10306;52.128;5.208;2023-08-20T02:02:04;4.00;;;3.40;;
20294;SDS011;10306;52.128;5.208;2023-08-20T02:04:31;7.60;;;4.10;;
20294;SDS011;10306;52.128;5.208;2023-08-20T02:06:57;5.10;;;3.47;;
20294;SDS011;10306;52.128;5.208;2023-08-20T02:09:23;9.00;;;3.67;;
20294;SDS011;10306;52.128;5.208;2023-08-20T02:11:50;3.90;;;3.60;;
20294;SDS011;10306;52.128;5.208;2023-08-20T02:14:16;7.90;;;3.87;;
20294;SDS011;10306;52.128;5.208;2023-08-20T02:16:42;5.33;;;3.30;;
20294;SDS011;10306;52.128;5.208;2023-08-20T02:19:08;4.93;;;2.87;;
20294;SDS011;10306;52.128;5.208;2023-08-20T02:21:34;5.50;;;3.40;;
20294;SDS011;10306;52.128;5.208;2023-08-20T02:24:00;6.50;;;3.30;;
20294;SDS011;10306;52.128;5.208;2023-08-20T02:26:26;7.13;;;3.37;;
20294;SDS011;10306;52.128;5.208;2023-08-20T02:28:52;3.77;;;3.53;;
20294;SDS011;10306;52.128;5.208;2023-08-20T02:31:18;4.20;;;3.37;;
20294;SDS011;10306;52.128;5.208;2023-08-20T02:33:44;5.07;;;3.33;;
20294;SDS011;10306;52.128;5.208;2023-08-20T02:36:10;6.77;;;3.80;;
20294;SDS011;10306;52.128;5.208;2023-08-20T02:38:36;4.10;;;3.30;;
20294;SDS011;10306;52.128;5.208;2023-08-20T02:41:02;4.00;;;3.70;;
20294;SDS011;10306;52.128;5.208;2023-08-20T02:43:28;5.10;;;3.50;;
20294;SDS011;10306;52.128;5.208;2023-08-20T02:45:54;6.20;;;3.97;;
20294;SDS011;10306;52.128;5.208;2023-08-20T02:48:20;7.13;;;3.67;;
20294;SDS011;10306;52.128;5.208;2023-08-20T02:50:51;5.80;;;3.47;;
20294;SDS011;10306;52.128;5.208;2023-08-20T02:53:17;4.33;;;3.30;;
20294;SDS011;10306;52.128;5.208;2023-08-20T02:55:43;4.70;;;3.90;;
20294;SDS011;10306;52.128;5.208;2023-08-20T02:58:09;3.77;;;3.40;;
20294;SDS011;10306;52.128;5.208;2023-08-20T03:00:35;6.87;;;3.77;;
20294;SDS011;10306;52.128;5.208;2023-08-20T03:03:02;5.03;;;3.83;;
20294;SDS011;10306;52.128;5.208;2023-08-20T03:05:31;4.97;;;3.13;;
20294;SDS011;10306;52.128;5.208;2023-08-20T03:07:57;3.90;;;3.60;;
20294;SDS011;10306;52.128;5.208;2023-08-20T03:10:23;5.13;;;4.00;;
20294;SDS011;10306;52.128;5.208;2023-08-20T03:12:49;4.70;;;3.93;;
20294;SDS011;10306;52.128;5.208;2023-08-20T03:15:15;4.40;;;3.70;;
20294;SDS011;10306;52.128;5.208;2023-08-20T03:17:41;4.43;;;3.47;;
20294;SDS011;10306;52.128;5.208;2023-08-20T03:20:07;6.27;;;4.00;;
20294;SDS011;10306;52.128;5.208;2023-08-20T03:22:36;3.83;;;3.53;;
20294;SDS011;10306;52.128;5.208;2023-08-20T03:25:02;4.00;;;3.70;;
20294;SDS011;10306;52.128;5.208;2023-08-20T03:27:29;4.90;;;3.47;;
20294;SDS011;10306;52.128;5.208;2023-08-20T03:29:55;4.10;;;3.30;;
20294;SDS011;10306;52.128;5.208;2023-08-20T03:32:21;4.23;;;3.47;;
20294;SDS011;10306;52.128;5.208;2023-08-20T03:34:47;7.90;;;4.00;;
20294;SDS011;10306;52.128;5.208;2023-08-20T03:37:13;3.90;;;3.50;;
20294;SDS011;10306;52.128;5.208;2023-08-20T03:39:39;6.43;;;4.10;;
20294;SDS011;10306;52.128;5.208;2023-08-20T03:42:05;5.13;;;3.97;;
20294;SDS011;10306;52.128;5.208;2023-08-20T03:44:31;4.37;;;3.97;;
20294;SDS011;10306;52.128;5.208;2023-08-20T03:46:57;5.97;;;4.20;;
20294;SDS011;10306;52.128;5.208;2023-08-20T03:49:23;4.27;;;3.90;;
20294;SDS011;10306;52.128;5.208;2023-08-20T03:51:49;6.30;;;4.17;;
20294;SDS011;10306;52.128;5.208;2023-08-20T03:54:15;4.63;;;4.07;;
20294;SDS011;10306;52.128;5.208;2023-08-20T03:56:41;5.03;;;3.90;;
20294;SDS011;10306;52.128;5.208;2023-08-20T03:59:07;5.47;;;4.23;;
20294;SDS011;10306;52.128;5.208;2023-08-20T04:01:33;5.23;;;4.20;;
20294;SDS011;10306;52.128;5.208;2023-08-20T04:04:02;7.47;;;4.27;;
20294;SDS011;10306;52.128;5.208;2023-08-20T04:06:28;6.03;;;4.30;;
20294;SDS011;10306;52.128;5.208;2023-08-20T04:08:54;5.80;;;4.07;;
20294;SDS011;10306;52.128;5.208;2023-08-20T04:11:20;3.80;;;3.50;;
20294;SDS011;10306;52.128;5.208;2023-08-20T04:13:46;3.70;;;3.40;;
20294;SDS011;10306;52.128;5.208;2023-08-20T04:16:12;3.83;;;3.40;;
20294;SDS011;10306;52.128;5.208;2023-08-20T04:18:39;3.70;;;3.40;;
20294;SDS011;10306;52.128;5.208;2023-08-20T04:21:05;9.10;;;3.90;;
20294;SDS011;10306;52.128;5.208;2023-08-20T04:23:32;5.00;;;3.93;;
20294;SDS011;10306;52.128;5.208;2023-08-20T04:25:58;3.87;;;3.50;;
20294;SDS011;10306;52.128;5.208;2023-08-20T04:28:24;6.63;;;3.83;;
20294;SDS011;10306;52.128;5.208;2023-08-20T04:30:52;4.73;;;3.60;;
20294;SDS011;10306;52.128;5.208;2023-08-20T04:33:19;4.23;;;3.50;;
20294;SDS011;10306;52.128;5.208;2023-08-20T04:35:45;4.33;;;3.50;;
20294;SDS011;10306;52.128;5.208;2023-08-20T04:38:11;4.37;;;3.60;;
20294;SDS011;10306;52.128;5.208;2023-08-20T04:40:37;7.37;;;3.90;;
20294;SDS011;10306;52.128;5.208;2023-08-20T04:43:03;7.17;;;3.87;;
20294;SDS011;10306;52.128;5.208;2023-08-20T04:45:29;6.23;;;3.77;;
20294;SDS011;10306;52.128;5.208;2023-08-20T04:47:55;5.20;;;3.70;;
20294;SDS011;10306;52.128;5.208;2023-08-20T04:50:21;9.47;;;4.43;;
20294;SDS011;10306;52.128;5.208;2023-08-20T04:52:47;4.07;;;3.63;;
20294;SDS011;10306;52.128;5.208;2023-08-20T04:55:13;4.83;;;3.40;;
20294;SDS011;10306;52.128;5.208;2023-08-20T04:57:40;4.13;;;3.67;;
20294;SDS011;10306;52.128;5.208;2023-08-20T05:00:06;3.90;;;3.60;;
20294;SDS011;10306;52.128;5.208;2023-08-20T05:02:34;4.97;;;3.67;;
20294;SDS011;10306;52.128;5.208;2023-08-20T05:05:01;5.30;;;3.87;;
20294;SDS011;10306;52.128;5.208;2023-08-20T05:07:27;4.20;;;3.47;;
20294;SDS011;10306;52.128;5.208;2023-08-20T05:09:53;4.00;;;3.50;;
20294;SDS011;10306;52.128;5.208;2023-08-20T05:12:19;3.37;;;3.07;;
20294;SDS011;10306;52.128;5.208;2023-08-20T05:14:45;3.50;;;3.30;;
20294;SDS011;10306;52.128;5.208;2023-08-20T05:17:11;3.50;;;3.20;;
20294;SDS011;10306;52.128;5.208;2023-08-20T05:19:37;7.40;;;3.70;;
20294;SDS011;10306;52.128;5.208;2023-08-20T05:22:03;4.20;;;2.87;;
20294;SDS011;10306;52.128;5.208;2023-08-20T05:24:29;4.67;;;3.70;;
20294;SDS011;10306;52.128;5.208;2023-08-20T05:27:05;3.43;;;3.20;;
20294;SDS011;10306;52.128;5.208;2023-08-20T05:29:31;6.93;;;3.30;;
20294;SDS011;10306;52.128;5.208;2023-08-20T05:31:57;4.33;;;3.33;;
20294;SDS011;10306;52.128;5.208;2023-08-20T05:34:23;3.40;;;3.10;;
20294;SDS011;10306;52.128;5.208;2023-08-20T05:36:49;3.83;;;3.10;;
20294;SDS011;10306;52.128;5.208;2023-08-20T05:39:15;3.57;;;3.20;;
20294;SDS011;10306;52.128;5.208;2023-08-20T05:41:41;3.27;;;2.90;;
20294;SDS011;10306;52.128;5.208;2023-08-20T05:44:07;3.10;;;2.90;;
20294;SDS011;10306;52.128;5.208;2023-08-20T05:46:33;6.63;;;3.30;;
20294;SDS011;10306;52.128;5.208;2023-08-20T05:48:59;5.13;;;3.40;;
20294;SDS011;10306;52.128;5.208;2023-08-20T05:51:25;3.60;;;3.30;;
20294;SDS011;10306;52.128;5.208;2023-08-20T05:53:51;4.10;;;3.20;;
20294;SDS011;10306;52.128;5.208;2023-08-20T05:56:18;5.90;;;3.03;;
20294;SDS011;10306;52.128;5.208;2023-08-20T05:58:44;6.27;;;3.40;;
20294;SDS011;10306;52.128;5.208;2023-08-20T06:01:09;3.40;;;3.10;;
20294;SDS011;10306;52.128;5.208;2023-08-20T06:03:35;4.57;;;3.23;;
20294;SDS011;10306;52.128;5.208;2023-08-20T06:06:01;4.60;;;3.20;;
20294;SDS011;10306;52.128;5.208;2023-08-20T06:08:27;4.03;;;2.60;;
20294;SDS011;10306;52.128;5.208;2023-08-20T06:10:53;3.27;;;2.63;;
20294;SDS011;10306;52.128;5.208;2023-08-20T06:13:19;7.30;;;2.97;;
20294;SDS011;10306;52.128;5.208;2023-08-20T06:15:46;5.57;;;2.60;;
20294;SDS011;10306;52.128;5.208;2023-08-20T06:18:11;4.33;;;3.10;;
20294;SDS011;10306;52.128;5.208;2023-08-20T06:20:38;5.30;;;3.03;;
20294;SDS011;10306;52.128;5.208;2023-08-20T06:23:04;2.83;;;2.63;;
20294;SDS011;10306;52.128;5.208;2023-08-20T06:25:29;4.87;;;3.10;;
20294;SDS011;10306;52.128;5.208;2023-08-20T06:27:56;6.90;;;3.13;;
20294;SDS011;10306;52.128;5.208;2023-08-20T06:30:21;3.90;;;3.00;;
20294;SDS011;10306;52.128;5.208;2023-08-20T06:32:47;3.40;;;3.10;;
20294;SDS011;10306;52.128;5.208;2023-08-20T06:35:13;6.87;;;3.73;;
20294;SDS011;10306;52.128;5.208;2023-08-20T06:37:39;8.73;;;3.80;;
20294;SDS011;10306;52.128;5.208;2023-08-20T06:40:06;8.07;;;2.97;;
20294;SDS011;10306;52.128;5.208;2023-08-20T06:42:32;6.30;;;3.27;;
20294;SDS011;10306;52.128;5.208;2023-08-20T06:44:58;3.90;;;2.70;;
20294;SDS011;10306;52.128;5.208;2023-08-20T06:47:24;4.43;;;2.90;;
20294;SDS011;10306;52.128;5.208;2023-08-20T06:49:51;5.27;;;3.10;;
20294;SDS011;10306;52.128;5.208;2023-08-20T06:52:17;4.53;;;3.20;;
20294;SDS011;10306;52.128;5.208;2023-08-20T06:54:43;6.77;;;3.27;;
20294;SDS011;10306;52.128;5.208;2023-08-20T06:57:09;6.20;;;2.63;;
20294;SDS011;10306;52.128;5.208;2023-08-20T06:59:36;7.07;;;3.17;;
20294;SDS011;10306;52.128;5.208;2023-08-20T07:02:02;5.57;;;2.90;;
20294;SDS011;10306;52.128;5.208;2023-08-20T07:04:28;5.33;;;2.70;;
20294;SDS011;10306;52.128;5.208;2023-08-20T07:06:54;4.30;;;2.70;;
20294;SDS011;10306;52.128;5.208;2023-08-20T07:09:20;5.53;;;2.50;;
20294;SDS011;10306;52.128;5.208;2023-08-20T07:11:46;4.20;;;1.97;;
20294;SDS011;10306;52.128;5.208;2023-08-20T07:14:12;6.03;;;2.17;;
20294;SDS011;10306;52.128;5.208;2023-08-20T07:16:38;6.82;;;2.10;;
20294;SDS011;10306;52.128;5.208;2023-08-20T07:19:04;9.63;;;2.88;;
20294;SDS011;10306;52.128;5.208;2023-08-20T07:21:30;7.03;;;2.65;;
20294;SDS011;10306;52.128;5.208;2023-08-20T07:23:56;4.55;;;1.92;;
20294;SDS011;10306;52.128;5.208;2023-08-20T07:26:22;7.80;;;3.10;;
20294;SDS011;10306;52.128;5.208;2023-08-20T07:28:48;3.38;;;1.90;;
20294;SDS011;10306;52.128;5.208;2023-08-20T07:31:31;4.72;;;2.10;;
20294;SDS011;10306;52.128;5.208;2023-08-20T07:33:58;3.85;;;1.92;;
20294;SDS011;10306;52.128;5.208;2023-08-20T07:36:24;3.33;;;1.88;;
20294;SDS011;10306;52.128;5.208;2023-08-20T07:38:51;5.55;;;2.13;;
20294;SDS011;10306;52.128;5.208;2023-08-20T07:41:17;10.15;;;1.85;;
20294;SDS011;10306;52.128;5.208;2023-08-20T07:43:44;7.00;;;1.70;;
20294;SDS011;10306;52.128;5.208;2023-08-20T07:46:10;5.30;;;2.28;;
20294;SDS011;10306;52.128;5.208;2023-08-20T07:48:37;4.05;;;1.70;;
20294;SDS011;10306;52.128;5.208;2023-08-20T07:51:03;5.00;;;1.73;;
20294;SDS011;10306;52.128;5.208;2023-08-20T07:53:29;2.97;;;1.77;;
20294;SDS011;10306;52.128;5.208;2023-08-20T07:55:55;4.72;;;1.88;;
20294;SDS011;10306;52.128;5.208;2023-08-20T07:58:22;4.32;;;2.83;;
20294;SDS011;10306;52.128;5.208;2023-08-20T08:00:48;7.93;;;2.30;;
20294;SDS011;10306;52.128;5.208;2023-08-20T08:03:14;4.38;;;1.90;;
20294;SDS011;10306;52.128;5.208;2023-08-20T08:05:40;3.85;;;1.70;;
20294;SDS011;10306;52.128;5.208;2023-08-20T08:08:06;4.40;;;1.67;;
20294;SDS011;10306;52.128;5.208;2023-08-20T08:10:32;5.93;;;2.17;;
20294;SDS011;10306;52.128;5.208;2023-08-20T08:12:58;4.00;;;2.10;;
20294;SDS011;10306;52.128;5.208;2023-08-20T08:15:25;3.50;;;1.50;;
20294;SDS011;10306;52.128;5.208;2023-08-20T08:17:51;5.85;;;1.55;;
20294;SDS011;10306;52.128;5.208;2023-08-20T08:20:17;3.03;;;1.73;;
20294;SDS011;10306;52.128;5.208;2023-08-20T08:22:43;2.05;;;1.50;;
20294;SDS011;10306;52.128;5.208;2023-08-20T08:25:09;4.85;;;1.70;;
20294;SDS011;10306;52.128;5.208;2023-08-20T08:27:36;4.50;;;1.75;;
20294;SDS011;10306;52.128;5.208;2023-08-20T08:30:02;3.35;;;1.30;;
20294;SDS011;10306;52.128;5.208;2023-08-20T08:32:28;3.35;;;1.38;;
20294;SDS011;10306;52.128;5.208;2023-08-20T08:34:54;3.47;;;1.30;;
20294;SDS011;10306;52.128;5.208;2023-08-20T08:37:20;3.20;;;1.30;;
20294;SDS011;10306;52.128;5.208;2023-08-20T08:39:46;2.22;;;1.10;;
20294;SDS011;10306;52.128;5.208;2023-08-20T08:42:12;4.40;;;1.83;;
20294;SDS011;10306;52.128;5.208;2023-08-20T08:44:39;1.45;;;1.35;;
20294;SDS011;10306;52.128;5.208;2023-08-20T08:47:05;2.63;;;1.52;;
20294;SDS011;10306;52.128;5.208;2023-08-20T08:49:34;3.13;;;1.45;;
20294;SDS011;10306;52.128;5.208;2023-08-20T08:52:00;3.42;;;1.60;;
20294;SDS011;10306;52.128;5.208;2023-08-20T08:54:27;5.22;;;1.88;;
20294;SDS011;10306;52.128;5.208;2023-08-20T08:56:55;4.47;;;1.60;;
20294;SDS011;10306;52.128;5.208;2023-08-20T08:59:21;2.67;;;1.50;;
20294;SDS011;10306;52.128;5.208;2023-08-20T09:01:49;1.85;;;1.33;;
20294;SDS011;10306;52.128;5.208;2023-08-20T09:04:15;6.00;;;2.13;;
20294;SDS011;10306;52.128;5.208;2023-08-20T09:06:48;3.03;;;1.60;;
20294;SDS011;10306;52.128;5.208;2023-08-20T09:09:16;2.97;;;1.60;;
20294;SDS011;10306;52.128;5.208;2023-08-20T09:11:42;2.92;;;1.30;;
20294;SDS011;10306;52.128;5.208;2023-08-20T09:14:08;2.25;;;1.20;;
20294;SDS011;10306;52.128;5.208;2023-08-20T09:16:45;6.70;;;1.48;;
20294;SDS011;10306;52.128;5.208;2023-08-20T09:19:12;2.63;;;1.40;;
20294;SDS011;10306;52.128;5.208;2023-08-20T09:21:38;4.32;;;1.40;;
20294;SDS011;10306;52.128;5.208;2023-08-20T09:24:04;4.53;;;1.30;;
20294;SDS011;10306;52.128;5.208;2023-08-20T09:26:30;1.85;;;1.38;;
20294;SDS011;10306;52.128;5.208;2023-08-20T09:28:56;2.60;;;1.10;;
20294;SDS011;10306;52.128;5.208;2023-08-20T09:31:36;3.83;;;1.33;;
20294;SDS011;10306;52.128;5.208;2023-08-20T09:34:02;2.28;;;1.10;;
20294;SDS011;10306;52.128;5.208;2023-08-20T09:36:32;1.13;;;1.00;;
20294;SDS011;10306;52.128;5.208;2023-08-20T09:38:58;2.03;;;1.45;;
20294;SDS011;10306;52.128;5.208;2023-08-20T09:41:25;2.63;;;1.17;;
20294;SDS011;10306;52.128;5.208;2023-08-20T09:43:55;2.83;;;1.10;;
20294;SDS011;10306;52.128;5.208;2023-08-20T09:46:23;1.35;;;0.90;;
20294;SDS011;10306;52.128;5.208;2023-08-20T09:48:49;1.63;;;1.10;;
20294;SDS011;10306;52.128;5.208;2023-08-20T09:51:18;1.05;;;1.00;;
20294;SDS011;10306;52.128;5.208;2023-08-20T09:53:47;2.70;;;1.10;;
20294;SDS011;10306;52.128;5.208;2023-08-20T09:56:24;2.00;;;1.08;;
20294;SDS011;10306;52.128;5.208;2023-08-20T09:58:53;1.75;;;0.80;;
20294;SDS011;10306;52.128;5.208;2023-08-20T10:01:20;2.95;;;1.00;;
20294;SDS011;10306;52.128;5.208;2023-08-20T10:03:46;2.47;;;1.05;;
20294;SDS011;10306;52.128;5.208;2023-08-20T10:06:12;1.65;;;1.08;;
20294;SDS011;10306;52.128;5.208;2023-08-20T10:08:38;2.70;;;1.17;;
20294;SDS011;10306;52.128;5.208;2023-08-20T10:11:04;3.03;;;1.17;;
20294;SDS011;10306;52.128;5.208;2023-08-20T10:13:30;1.52;;;1.00;;
20294;SDS011;10306;52.128;5.208;2023-08-20T10:15:57;1.25;;;1.15;;
20294;SDS011;10306;52.128;5.208;2023-08-20T10:18:23;2.15;;;1.13;;
20294;SDS011;10306;52.128;5.208;2023-08-20T10:20:50;1.40;;;1.30;;
20294;SDS011;10306;52.128;5.208;2023-08-20T10:23:19;3.40;;;1.00;;
20294;SDS011;10306;52.128;5.208;2023-08-20T10:25:46;1.30;;;1.20;;
20294;SDS011;10306;52.128;5.208;2023-08-20T10:28:13;3.20;;;1.20;;
20294;SDS011;10306;52.128;5.208;2023-08-20T10:31:02;3.05;;;1.10;;
20294;SDS011;10306;52.128;5.208;2023-08-20T10:33:26;1.98;;;1.08;;
20294;SDS011;10306;52.128;5.208;2023-08-20T10:35:51;2.53;;;1.00;;
20294;SDS011;10306;52.128;5.208;2023-08-20T10:38:18;2.78;;;1.13;;
20294;SDS011;10306;52.128;5.208;2023-08-20T10:46:02;4.00;;;1.23;;
20294;SDS011;10306;52.128;5.208;2023-08-20T10:48:29;1.60;;;1.30;;
20294;SDS011;10306;52.128;5.208;2023-08-20T10:50:56;3.80;;;1.25;;
20294;SDS011;10306;52.128;5.208;2023-08-20T10:53:22;1.42;;;0.88;;
20294;SDS011;10306;52.128;5.208;2023-08-20T10:55:48;2.10;;;1.17;;
20294;SDS011;10306;52.128;5.208;2023-08-20T10:58:14;3.20;;;1.27;;
20294;SDS011;10306;52.128;5.208;2023-08-20T11:00:41;2.25;;;1.15;;
20294;SDS011;10306;52.128;5.208;2023-08-20T11:03:07;2.53;;;1.02;;
20294;SDS011;10306;52.128;5.208;2023-08-20T11:05:34;3.10;;;1.00;;
20294;SDS011;10306;52.128;5.208;2023-08-20T11:08:00;1.52;;;1.30;;
20294;SDS011;10306;52.128;5.208;2023-08-20T11:10:28;2.15;;;0.95;;
20294;SDS011;10306;52.128;5.208;2023-08-20T11:12:54;1.55;;;0.90;;
20294;SDS011;10306;52.128;5.208;2023-08-20T11:15:20;0.93;;;0.85;;
20294;SDS011;10306;52.128;5.208;2023-08-20T11:17:47;2.75;;;0.90;;
20294;SDS011;10306;52.128;5.208;2023-08-20T11:20:16;2.90;;;0.90;;
20294;SDS011;10306;52.128;5.208;2023-08-20T11:22:42;2.08;;;0.90;;
20294;SDS011;10306;52.128;5.208;2023-08-20T11:25:10;2.00;;;1.10;;
20294;SDS011;10306;52.128;5.208;2023-08-20T11:27:40;1.27;;;0.88;;
20294;SDS011;10306;52.128;5.208;2023-08-20T11:30:06;1.98;;;0.73;;
20294;SDS011;10306;52.128;5.208;2023-08-20T11:32:32;1.92;;;0.90;;
20294;SDS011;10306;52.128;5.208;2023-08-20T11:34:59;1.08;;;0.90;;
20294;SDS011;10306;52.128;5.208;2023-08-20T11:37:25;3.35;;;1.00;;
20294;SDS011;10306;52.128;5.208;2023-08-20T11:39:52;1.75;;;0.88;;
20294;SDS011;10306;52.128;5.208;2023-08-20T11:42:18;1.13;;;0.90;;
20294;SDS011;10306;52.128;5.208;2023-08-20T11:44:45;0.70;;;0.70;;
20294;SDS011;10306;52.128;5.208;2023-08-20T11:47:18;2.40;;;0.90;;
20294;SDS011;10306;52.128;5.208;2023-08-20T11:49:44;2.15;;;1.10;;
20294;SDS011;10306;52.128;5.208;2023-08-20T11:52:10;1.33;;;1.00;;
20294;SDS011;10306;52.128;5.208;2023-08-20T11:54:42;2.13;;;1.20;;
20294;SDS011;10306;52.128;5.208;2023-08-20T11:57:08;1.15;;;1.05;;
20294;SDS011;10306;52.128;5.208;2023-08-20T11:59:34;2.08;;;0.90;;
20294;SDS011;10306;52.128;5.208;2023-08-20T12:02:01;2.03;;;0.80;;
20294;SDS011;10306;52.128;5.208;2023-08-20T12:04:30;3.60;;;0.80;;
20294;SDS011;10306;52.128;5.208;2023-08-20T12:07:03;2.25;;;1.00;;
20294;SDS011;10306;52.128;5.208;2023-08-20T12:09:32;1.63;;;0.77;;
20294;SDS011;10306;52.128;5.208;2023-08-20T12:11:59;1.00;;;0.82;;
20294;SDS011;10306;52.128;5.208;2023-08-20T12:14:25;1.92;;;0.93;;
20294;SDS011;10306;52.128;5.208;2023-08-20T12:16:51;1.27;;;0.82;;
20294;SDS011;10306;52.128;5.208;2023-08-20T12:19:19;1.67;;;0.93;;
20294;SDS011;10306;52.128;5.208;2023-08-20T12:21:45;1.83;;;0.75;;
20294;SDS011;10306;52.128;5.208;2023-08-20T12:24:11;1.98;;;1.00;;
20294;SDS011;10306;52.128;5.208;2023-08-20T12:26:37;1.27;;;0.80;;
20294;SDS011;10306;52.128;5.208;2023-08-20T12:29:04;3.67;;;1.20;;
20294;SDS011;10306;52.128;5.208;2023-08-20T12:31:31;1.48;;;0.80;;
20294;SDS011;10306;52.128;5.208;2023-08-20T12:33:57;1.88;;;1.02;;
20294;SDS011;10306;52.128;5.208;2023-08-20T12:36:23;3.25;;;0.90;;
20294;SDS011;10306;52.128;5.208;2023-08-20T12:38:49;3.22;;;0.90;;
20294;SDS011;10306;52.128;5.208;2023-08-20T12:41:15;2.38;;;1.00;;
20294;SDS011;10306;52.128;5.208;2023-08-20T12:43:41;2.30;;;1.13;;
20294;SDS011;10306;52.128;5.208;2023-08-20T12:46:07;1.30;;;1.10;;
20294;SDS011;10306;52.128;5.208;2023-08-20T12:48:33;1.52;;;1.02;;
20294;SDS011;10306;52.128;5.208;2023-08-20T12:50:59;3.15;;;1.05;;
20294;SDS011;10306;52.128;5.208;2023-08-20T12:53:25;2.63;;;1.27;;
20294;SDS011;10306;52.128;5.208;2023-08-20T12:55:51;1.42;;;1.05;;
20294;SDS011;10306;52.128;5.208;2023-08-20T12:58:17;3.17;;;1.00;;
20294;SDS011;10306;52.128;5.208;2023-08-20T13:00:43;1.10;;;1.00;;
20294;SDS011;10306;52.128;5.208;2023-08-20T13:03:09;1.77;;;0.98;;
20294;SDS011;10306;52.128;5.208;2023-08-20T13:05:35;2.47;;;1.73;;
20294;SDS011;10306;52.128;5.208;2023-08-20T13:08:02;1.52;;;1.15;;
20294;SDS011;10306;52.128;5.208;2023-08-20T13:10:28;2.33;;;1.25;;
20294;SDS011;10306;52.128;5.208;2023-08-20T13:12:54;2.15;;;1.00;;
20294;SDS011;10306;52.128;5.208;2023-08-20T13:15:22;1.17;;;0.77;;
20294;SDS011;10306;52.128;5.208;2023-08-20T13:17:50;1.00;;;0.98;;
20294;SDS011;10306;52.128;5.208;2023-08-20T13:20:16;2.53;;;1.10;;
20294;SDS011;10306;52.128;5.208;2023-08-20T13:22:50;3.80;;;1.20;;
20294;SDS011;10306;52.128;5.208;2023-08-20T13:25:17;3.33;;;1.00;;
20294;SDS011;10306;52.128;5.208;2023-08-20T13:27:43;1.58;;;1.05;;
20294;SDS011;10306;52.128;5.208;2023-08-20T13:30:09;1.27;;;0.90;;
20294;SDS011;10306;52.128;5.208;2023-08-20T13:32:35;2.20;;;1.13;;
20294;SDS011;10306;52.128;5.208;2023-08-20T13:35:02;2.20;;;0.90;;
20294;SDS011;10306;52.128;5.208;2023-08-20T13:37:31;1.83;;;1.10;;
20294;SDS011;10306;52.128;5.208;2023-08-20T13:39:57;2.42;;;0.90;;
20294;SDS011;10306;52.128;5.208;2023-08-20T13:42:24;1.65;;;0.90;;
20294;SDS011;10306;52.128;5.208;2023-08-20T13:44:50;1.13;;;0.73;;
20294;SDS011;10306;52.128;5.208;2023-08-20T13:47:16;5.40;;;1.13;;
20294;SDS011;10306;52.128;5.208;2023-08-20T13:49:42;2.22;;;1.08;;
20294;SDS011;10306;52.128;5.208;2023-08-20T13:52:08;2.53;;;1.25;;
20294;SDS011;10306;52.128;5.208;2023-08-20T13:54:35;1.40;;;1.27;;
20294;SDS011;10306;52.128;5.208;2023-08-20T13:57:01;1.00;;;0.85;;
20294;SDS011;10306;52.128;5.208;2023-08-20T13:59:28;5.38;;;1.45;;
20294;SDS011;10306;52.128;5.208;2023-08-20T14:01:54;2.47;;;1.20;;
20294;SDS011;10306;52.128;5.208;2023-08-20T14:04:20;3.08;;;1.08;;
20294;SDS011;10306;52.128;5.208;2023-08-20T14:06:46;2.45;;;1.10;;
20294;SDS011;10306;52.128;5.208;2023-08-20T14:09:13;2.25;;;1.00;;
20294;SDS011;10306;52.128;5.208;2023-08-20T14:11:39;3.35;;;0.95;;
20294;SDS011;10306;52.128;5.208;2023-08-20T14:14:05;1.63;;;1.10;;
20294;SDS011;10306;52.128;5.208;2023-08-20T14:16:31;2.00;;;1.05;;
20294;SDS011;10306;52.128;5.208;2023-08-20T14:18:57;1.90;;;1.10;;
20294;SDS011;10306;52.128;5.208;2023-08-20T14:21:23;3.28;;;1.20;;
20294;SDS011;10306;52.128;5.208;2023-08-20T14:23:49;1.65;;;1.00;;
20294;SDS011;10306;52.128;5.208;2023-08-20T14:26:15;2.70;;;0.80;;
20294;SDS011;10306;52.128;5.208;2023-08-20T14:28:41;3.80;;;1.38;;
20294;SDS011;10306;52.128;5.208;2023-08-20T14:31:10;3.70;;;1.10;;
20294;SDS011;10306;52.128;5.208;2023-08-20T14:33:36;2.10;;;0.88;;
20294;SDS011;10306;52.128;5.208;2023-08-20T14:36:02;2.45;;;0.90;;
20294;SDS011;10306;52.128;5.208;2023-08-20T14:38:31;1.30;;;1.20;;
20294;SDS011;10306;52.128;5.208;2023-08-20T14:41:01;0.93;;;0.70;;
20294;SDS011;10306;52.128;5.208;2023-08-20T14:43:27;2.33;;;0.90;;
20294;SDS011;10306;52.128;5.208;2023-08-20T14:45:53;2.97;;;1.15;;
20294;SDS011;10306;52.128;5.208;2023-08-20T14:48:20;1.80;;;1.20;;
20294;SDS011;10306;52.128;5.208;2023-08-20T14:50:46;2.38;;;1.30;;
20294;SDS011;10306;52.128;5.208;2023-08-20T14:53:13;1.15;;;1.00;;
20294;SDS011;10306;52.128;5.208;2023-08-20T14:55:39;2.65;;;1.42;;
20294;SDS011;10306;52.128;5.208;2023-08-20T14:58:05;1.00;;;0.90;;
20294;SDS011;10306;52.128;5.208;2023-08-20T15:00:32;1.65;;;1.20;;
20294;SDS011;10306;52.128;5.208;2023-08-20T15:02:58;2.05;;;1.00;;